sensor_id;sensor_type;location;lat;lon;timestamp;P1;durP1;ratioP1;P2;durP2;ratioP2
33876;SDS011;20166;51.738;7.158;2023-12-20T00:01:30;12.40;;;6.37;;
33876;SDS011;20166;51.738;7.158;2023-12-20T00:04:17;13.83;;;5.93;;
33876;SDS011;20166;51.738;7.158;2023-12-20T00:07:03;10.40;;;5.27;;
33876;SDS011;20166;51.738;7.158;2023-12-20T00:09:50;11.10;;;6.23;;
33876;SDS011;20166;51.738;7.158;2023-12-20T00:12:38;10.93;;;5.33;;
33876;SDS011;20166;51.738;7.158;2023-12-20T00:15:24;14.43;;;6.40;;
33876;SDS011;20166;51.738;7.158;2023-12-20T00:18:10;16.77;;;7.00;;
33876;SDS011;20166;51.738;7.158;2023-12-20T00:20:57;19.00;;;6.00;;
33876;SDS011;20166;51.738;7.158;2023-12-20T00:23:43;12.50;;;5.80;;
33876;SDS011;20166;51.738;7.158;2023-12-20T00:26:29;13.57;;;5.87;;
33876;SDS011;20166;51.738;7.158;2023-12-20T00:29:17;15.37;;;5.70;;
33876;SDS011;20166;51.738;7.158;2023-12-20T00:32:03;13.30;;;6.30;;
33876;SDS011;20166;51.738;7.158;2023-12-20T00:34:50;15.27;;;5.80;;
33876;SDS011;20166;51.738;7.158;2023-12-20T00:37:36;14.00;;;6.07;;
33876;SDS011;20166;51.738;7.158;2023-12-20T00:40:22;9.80;;;4.90;;
33876;SDS011;20166;51.738;7.158;2023-12-20T00:43:09;10.40;;;6.10;;
33876;SDS011;20166;51.738;7.158;2023-12-20T00:45:57;10.67;;;5.40;;
33876;SDS011;20166;51.738;7.158;2023-12-20T00:48:45;10.47;;;4.90;;
33876;SDS011;20166;51.738;7.158;2023-12-20T00:51:31;10.10;;;4.67;;
33876;SDS011;20166;51.738;7.158;2023-12-20T00:54:18;9.27;;;4.73;;
33876;SDS011;20166;51.738;7.158;2023-12-20T00:57:04;11.60;;;5.00;;
33876;SDS011;20166;51.738;7.158;2023-12-20T00:59:50;12.13;;;5.37;;
33876;SDS011;20166;51.738;7.158;2023-12-20T01:02:38;8.50;;;4.77;;
33876;SDS011;20166;51.738;7.158;2023-12-20T01:05:25;12.70;;;5.47;;
33876;SDS011;20166;51.738;7.158;2023-12-20T01:08:11;8.53;;;4.37;;
33876;SDS011;20166;51.738;7.158;2023-12-20T01:10:58;10.80;;;4.40;;
33876;SDS011;20166;51.738;7.158;2023-12-20T01:13:44;8.53;;;3.83;;
33876;SDS011;20166;51.738;7.158;2023-12-20T01:16:30;10.47;;;4.13;;
33876;SDS011;20166;51.738;7.158;2023-12-20T01:19:18;17.03;;;5.00;;
33876;SDS011;20166;51.738;7.158;2023-12-20T01:22:04;10.87;;;3.93;;
33876;SDS011;20166;51.738;7.158;2023-12-20T01:24:51;6.77;;;3.10;;
33876;SDS011;20166;51.738;7.158;2023-12-20T01:27:37;10.60;;;3.87;;
33876;SDS011;20166;51.738;7.158;2023-12-20T01:30:24;10.37;;;3.83;;
33876;SDS011;20166;51.738;7.158;2023-12-20T01:33:10;5.47;;;3.30;;
33876;SDS011;20166;51.738;7.158;2023-12-20T01:35:58;5.50;;;3.10;;
33876;SDS011;20166;51.738;7.158;2023-12-20T01:38:44;6.33;;;3.07;;
33876;SDS011;20166;51.738;7.158;2023-12-20T01:41:31;8.97;;;3.00;;
33876;SDS011;20166;51.738;7.158;2023-12-20T01:44:17;5.27;;;3.13;;
33876;SDS011;20166;51.738;7.158;2023-12-20T01:47:04;8.20;;;2.60;;
33876;SDS011;20166;51.738;7.158;2023-12-20T01:49:50;5.73;;;2.97;;
33876;SDS011;20166;51.738;7.158;2023-12-20T01:52:38;6.70;;;2.57;;
33876;SDS011;20166;51.738;7.158;2023-12-20T01:55:24;7.47;;;2.63;;
33876;SDS011;20166;51.738;7.158;2023-12-20T01:58:11;9.23;;;2.70;;
33876;SDS011;20166;51.738;7.158;2023-12-20T02:00:59;4.57;;;2.50;;
33876;SDS011;20166;51.738;7.158;2023-12-20T02:03:45;5.07;;;3.47;;
33876;SDS011;20166;51.738;7.158;2023-12-20T02:06:32;4.10;;;2.40;;
33876;SDS011;20166;51.738;7.158;2023-12-20T02:09:21;9.70;;;3.40;;
33876;SDS011;20166;51.738;7.158;2023-12-20T02:12:08;11.77;;;2.93;;
33876;SDS011;20166;51.738;7.158;2023-12-20T02:14:55;4.93;;;2.80;;
33876;SDS011;20166;51.738;7.158;2023-12-20T02:17:42;13.03;;;3.57;;
33876;SDS011;20166;51.738;7.158;2023-12-20T02:20:29;6.30;;;3.33;;
33876;SDS011;20166;51.738;7.158;2023-12-20T02:23:17;4.23;;;3.23;;
33876;SDS011;20166;51.738;7.158;2023-12-20T02:26:03;12.43;;;4.43;;
33876;SDS011;20166;51.738;7.158;2023-12-20T02:28:51;7.30;;;3.47;;
33876;SDS011;20166;51.738;7.158;2023-12-20T02:31:38;9.93;;;3.10;;
33876;SDS011;20166;51.738;7.158;2023-12-20T02:34:24;6.00;;;3.17;;
33876;SDS011;20166;51.738;7.158;2023-12-20T02:37:11;7.77;;;3.73;;
33876;SDS011;20166;51.738;7.158;2023-12-20T02:39:59;10.27;;;3.53;;
33876;SDS011;20166;51.738;7.158;2023-12-20T02:42:45;4.50;;;2.90;;
33876;SDS011;20166;51.738;7.158;2023-12-20T02:45:31;12.23;;;3.83;;
33876;SDS011;20166;51.738;7.158;2023-12-20T02:48:17;12.93;;;3.50;;
33876;SDS011;20166;51.738;7.158;2023-12-20T02:51:04;4.70;;;2.93;;
33876;SDS011;20166;51.738;7.158;2023-12-20T02:53:50;4.47;;;3.03;;
33876;SDS011;20166;51.738;7.158;2023-12-20T02:56:38;6.43;;;3.20;;
33876;SDS011;20166;51.738;7.158;2023-12-20T02:59:24;8.17;;;3.27;;
33876;SDS011;20166;51.738;7.158;2023-12-20T03:02:10;5.60;;;3.13;;
33876;SDS011;20166;51.738;7.158;2023-12-20T03:04:56;5.63;;;3.40;;
33876;SDS011;20166;51.738;7.158;2023-12-20T03:07:45;7.30;;;3.90;;
33876;SDS011;20166;51.738;7.158;2023-12-20T03:10:32;5.13;;;3.60;;
33876;SDS011;20166;51.738;7.158;2023-12-20T03:13:19;9.73;;;3.60;;
33876;SDS011;20166;51.738;7.158;2023-12-20T03:16:07;13.40;;;3.37;;
33876;SDS011;20166;51.738;7.158;2023-12-20T03:18:54;6.77;;;3.20;;
33876;SDS011;20166;51.738;7.158;2023-12-20T03:21:41;8.07;;;3.27;;
33876;SDS011;20166;51.738;7.158;2023-12-20T03:24:27;5.67;;;3.23;;
33876;SDS011;20166;51.738;7.158;2023-12-20T03:27:13;6.43;;;3.13;;
33876;SDS011;20166;51.738;7.158;2023-12-20T03:30:01;9.77;;;3.33;;
33876;SDS011;20166;51.738;7.158;2023-12-20T03:32:47;8.27;;;3.17;;
33876;SDS011;20166;51.738;7.158;2023-12-20T03:35:33;6.87;;;3.80;;
33876;SDS011;20166;51.738;7.158;2023-12-20T03:38:20;8.90;;;3.60;;
33876;SDS011;20166;51.738;7.158;2023-12-20T03:41:08;8.37;;;3.70;;
33876;SDS011;20166;51.738;7.158;2023-12-20T03:43:55;6.87;;;3.63;;
33876;SDS011;20166;51.738;7.158;2023-12-20T03:46:43;13.63;;;4.33;;
33876;SDS011;20166;51.738;7.158;2023-12-20T03:49:30;7.80;;;3.97;;
33876;SDS011;20166;51.738;7.158;2023-12-20T03:52:17;12.27;;;4.60;;
33876;SDS011;20166;51.738;7.158;2023-12-20T03:55:03;5.67;;;3.70;;
33876;SDS011;20166;51.738;7.158;2023-12-20T03:57:50;12.33;;;4.27;;
33876;SDS011;20166;51.738;7.158;2023-12-20T04:00:36;15.27;;;4.67;;
33876;SDS011;20166;51.738;7.158;2023-12-20T04:03:24;8.47;;;3.90;;
33876;SDS011;20166;51.738;7.158;2023-12-20T04:06:10;8.57;;;4.37;;
33876;SDS011;20166;51.738;7.158;2023-12-20T04:09:02;14.23;;;4.53;;
33876;SDS011;20166;51.738;7.158;2023-12-20T04:11:49;12.47;;;4.33;;
33876;SDS011;20166;51.738;7.158;2023-12-20T04:14:35;20.00;;;4.37;;
33876;SDS011;20166;51.738;7.158;2023-12-20T04:17:22;7.20;;;3.83;;
33876;SDS011;20166;51.738;7.158;2023-12-20T04:20:10;5.40;;;3.87;;
33876;SDS011;20166;51.738;7.158;2023-12-20T04:22:56;6.77;;;3.40;;
33876;SDS011;20166;51.738;7.158;2023-12-20T04:25:43;6.00;;;3.37;;
33876;SDS011;20166;51.738;7.158;2023-12-20T04:28:29;7.73;;;4.13;;
33876;SDS011;20166;51.738;7.158;2023-12-20T04:31:16;13.43;;;3.83;;
33876;SDS011;20166;51.738;7.158;2023-12-20T04:34:02;13.80;;;3.90;;
33876;SDS011;20166;51.738;7.158;2023-12-20T04:36:50;9.77;;;3.73;;
33876;SDS011;20166;51.738;7.158;2023-12-20T04:39:37;6.87;;;3.23;;
33876;SDS011;20166;51.738;7.158;2023-12-20T04:42:23;5.60;;;3.70;;
33876;SDS011;20166;51.738;7.158;2023-12-20T04:45:09;14.10;;;3.53;;
33876;SDS011;20166;51.738;7.158;2023-12-20T04:47:57;6.57;;;3.37;;
33876;SDS011;20166;51.738;7.158;2023-12-20T04:50:44;11.20;;;3.63;;
33876;SDS011;20166;51.738;7.158;2023-12-20T04:53:31;10.30;;;4.70;;
33876;SDS011;20166;51.738;7.158;2023-12-20T04:56:18;9.17;;;3.20;;
33876;SDS011;20166;51.738;7.158;2023-12-20T04:59:04;13.27;;;4.00;;
33876;SDS011;20166;51.738;7.158;2023-12-20T05:01:51;15.57;;;4.30;;
33876;SDS011;20166;51.738;7.158;2023-12-20T05:04:37;11.83;;;3.70;;
33876;SDS011;20166;51.738;7.158;2023-12-20T05:07:23;12.43;;;4.17;;
33876;SDS011;20166;51.738;7.158;2023-12-20T05:10:10;7.13;;;3.30;;
33876;SDS011;20166;51.738;7.158;2023-12-20T05:12:57;12.63;;;4.43;;
33876;SDS011;20166;51.738;7.158;2023-12-20T05:15:43;4.07;;;3.30;;
33876;SDS011;20166;51.738;7.158;2023-12-20T05:18:29;6.63;;;3.07;;
33876;SDS011;20166;51.738;7.158;2023-12-20T05:21:16;6.23;;;2.87;;
33876;SDS011;20166;51.738;7.158;2023-12-20T05:24:03;7.43;;;3.20;;
33876;SDS011;20166;51.738;7.158;2023-12-20T05:26:51;7.63;;;3.00;;
33876;SDS011;20166;51.738;7.158;2023-12-20T05:29:38;5.83;;;3.10;;
33876;SDS011;20166;51.738;7.158;2023-12-20T05:32:24;12.73;;;3.50;;
33876;SDS011;20166;51.738;7.158;2023-12-20T05:35:11;8.47;;;3.23;;
33876;SDS011;20166;51.738;7.158;2023-12-20T05:37:57;6.83;;;2.67;;
33876;SDS011;20166;51.738;7.158;2023-12-20T05:40:43;6.50;;;2.67;;
33876;SDS011;20166;51.738;7.158;2023-12-20T05:43:31;12.67;;;2.90;;
33876;SDS011;20166;51.738;7.158;2023-12-20T05:46:17;6.43;;;2.40;;
33876;SDS011;20166;51.738;7.158;2023-12-20T05:49:04;11.37;;;3.67;;
33876;SDS011;20166;51.738;7.158;2023-12-20T05:51:50;11.93;;;3.40;;
33876;SDS011;20166;51.738;7.158;2023-12-20T05:54:36;2.90;;;2.23;;
33876;SDS011;20166;51.738;7.158;2023-12-20T05:57:23;4.80;;;2.80;;
33876;SDS011;20166;51.738;7.158;2023-12-20T06:00:12;5.03;;;2.93;;
33876;SDS011;20166;51.738;7.158;2023-12-20T06:03:00;4.57;;;2.57;;
33876;SDS011;20166;51.738;7.158;2023-12-20T06:05:46;10.70;;;2.97;;
33876;SDS011;20166;51.738;7.158;2023-12-20T06:08:33;6.63;;;3.27;;
33876;SDS011;20166;51.738;7.158;2023-12-20T06:11:19;7.23;;;3.07;;
33876;SDS011;20166;51.738;7.158;2023-12-20T06:14:06;20.57;;;4.17;;
33876;SDS011;20166;51.738;7.158;2023-12-20T06:16:53;7.50;;;3.30;;
33876;SDS011;20166;51.738;7.158;2023-12-20T06:19:40;14.93;;;4.77;;
33876;SDS011;20166;51.738;7.158;2023-12-20T06:22:27;8.23;;;3.17;;
33876;SDS011;20166;51.738;7.158;2023-12-20T06:25:14;7.07;;;2.97;;
33876;SDS011;20166;51.738;7.158;2023-12-20T06:28:00;15.00;;;4.07;;
33876;SDS011;20166;51.738;7.158;2023-12-20T06:30:46;9.17;;;3.83;;
33876;SDS011;20166;51.738;7.158;2023-12-20T06:33:36;11.80;;;2.93;;
33876;SDS011;20166;51.738;7.158;2023-12-20T06:36:22;8.93;;;3.87;;
33876;SDS011;20166;51.738;7.158;2023-12-20T06:39:08;7.73;;;2.73;;
33876;SDS011;20166;51.738;7.158;2023-12-20T06:41:57;12.63;;;3.50;;
33876;SDS011;20166;51.738;7.158;2023-12-20T06:44:43;17.57;;;4.10;;
33876;SDS011;20166;51.738;7.158;2023-12-20T06:47:30;15.43;;;4.00;;
33876;SDS011;20166;51.738;7.158;2023-12-20T06:50:17;11.83;;;4.00;;
33876;SDS011;20166;51.738;7.158;2023-12-20T06:53:04;16.57;;;3.40;;
33876;SDS011;20166;51.738;7.158;2023-12-20T06:55:52;9.67;;;3.53;;
33876;SDS011;20166;51.738;7.158;2023-12-20T06:58:38;9.27;;;3.53;;
33876;SDS011;20166;51.738;7.158;2023-12-20T07:01:25;19.50;;;4.57;;
33876;SDS011;20166;51.738;7.158;2023-12-20T07:04:11;11.70;;;3.70;;
33876;SDS011;20166;51.738;7.158;2023-12-20T07:06:59;12.10;;;4.00;;
33876;SDS011;20166;51.738;7.158;2023-12-20T07:09:46;11.63;;;4.07;;
33876;SDS011;20166;51.738;7.158;2023-12-20T07:12:32;7.47;;;3.77;;
33876;SDS011;20166;51.738;7.158;2023-12-20T07:15:18;13.90;;;4.03;;
33876;SDS011;20166;51.738;7.158;2023-12-20T07:18:05;11.93;;;3.77;;
33876;SDS011;20166;51.738;7.158;2023-12-20T07:20:52;10.13;;;4.00;;
33876;SDS011;20166;51.738;7.158;2023-12-20T07:23:40;8.57;;;3.93;;
33876;SDS011;20166;51.738;7.158;2023-12-20T07:26:26;13.33;;;5.53;;
33876;SDS011;20166;51.738;7.158;2023-12-20T07:29:13;8.23;;;4.10;;
33876;SDS011;20166;51.738;7.158;2023-12-20T07:31:59;9.60;;;4.30;;
33876;SDS011;20166;51.738;7.158;2023-12-20T07:34:46;9.43;;;3.80;;
33876;SDS011;20166;51.738;7.158;2023-12-20T07:37:32;17.73;;;4.37;;
33876;SDS011;20166;51.738;7.158;2023-12-20T07:40:20;15.67;;;4.20;;
33876;SDS011;20166;51.738;7.158;2023-12-20T07:43:07;13.40;;;4.13;;
33876;SDS011;20166;51.738;7.158;2023-12-20T07:45:53;5.80;;;3.90;;
33876;SDS011;20166;51.738;7.158;2023-12-20T07:48:39;19.10;;;4.53;;
33876;SDS011;20166;51.738;7.158;2023-12-20T07:51:29;15.07;;;3.77;;
33876;SDS011;20166;51.738;7.158;2023-12-20T07:54:16;8.63;;;3.93;;
33876;SDS011;20166;51.738;7.158;2023-12-20T07:57:04;10.27;;;3.77;;
33876;SDS011;20166;51.738;7.158;2023-12-20T07:59:51;11.70;;;3.83;;
33876;SDS011;20166;51.738;7.158;2023-12-20T08:02:37;16.33;;;3.57;;
33876;SDS011;20166;51.738;7.158;2023-12-20T08:05:24;6.30;;;3.63;;
33876;SDS011;20166;51.738;7.158;2023-12-20T08:08:10;8.87;;;4.13;;
33876;SDS011;20166;51.738;7.158;2023-12-20T08:10:57;11.43;;;4.10;;
33876;SDS011;20166;51.738;7.158;2023-12-20T08:13:46;13.30;;;3.20;;
33876;SDS011;20166;51.738;7.158;2023-12-20T08:16:32;8.87;;;3.23;;
33876;SDS011;20166;51.738;7.158;2023-12-20T08:19:19;6.27;;;3.13;;
33876;SDS011;20166;51.738;7.158;2023-12-20T08:22:05;10.77;;;4.03;;
33876;SDS011;20166;51.738;7.158;2023-12-20T08:24:52;6.80;;;3.23;;
33876;SDS011;20166;51.738;7.158;2023-12-20T08:27:39;8.80;;;3.20;;
33876;SDS011;20166;51.738;7.158;2023-12-20T08:30:27;8.23;;;3.60;;
33876;SDS011;20166;51.738;7.158;2023-12-20T08:33:14;7.83;;;3.17;;
33876;SDS011;20166;51.738;7.158;2023-12-20T08:36:01;5.70;;;3.43;;
33876;SDS011;20166;51.738;7.158;2023-12-20T08:38:50;14.60;;;3.50;;
33876;SDS011;20166;51.738;7.158;2023-12-20T08:41:36;5.00;;;2.83;;
33876;SDS011;20166;51.738;7.158;2023-12-20T08:44:22;8.00;;;2.87;;
33876;SDS011;20166;51.738;7.158;2023-12-20T08:47:10;6.67;;;2.87;;
33876;SDS011;20166;51.738;7.158;2023-12-20T08:49:58;8.33;;;2.90;;
33876;SDS011;20166;51.738;7.158;2023-12-20T08:52:46;7.03;;;3.33;;
33876;SDS011;20166;51.738;7.158;2023-12-20T08:55:33;9.00;;;4.00;;
33876;SDS011;20166;51.738;7.158;2023-12-20T08:58:19;10.83;;;3.47;;
33876;SDS011;20166;51.738;7.158;2023-12-20T09:01:06;8.97;;;3.30;;
33876;SDS011;20166;51.738;7.158;2023-12-20T09:03:54;19.43;;;4.83;;
33876;SDS011;20166;51.738;7.158;2023-12-20T09:06:40;6.63;;;3.47;;
33876;SDS011;20166;51.738;7.158;2023-12-20T09:09:27;9.33;;;3.13;;
33876;SDS011;20166;51.738;7.158;2023-12-20T09:12:13;10.47;;;3.23;;
33876;SDS011;20166;51.738;7.158;2023-12-20T09:15:00;9.13;;;2.60;;
33876;SDS011;20166;51.738;7.158;2023-12-20T09:17:47;6.57;;;2.70;;
33876;SDS011;20166;51.738;7.158;2023-12-20T09:20:36;8.43;;;3.43;;
33876;SDS011;20166;51.738;7.158;2023-12-20T09:23:27;10.37;;;3.17;;
33876;SDS011;20166;51.738;7.158;2023-12-20T09:26:14;5.50;;;2.83;;
33876;SDS011;20166;51.738;7.158;2023-12-20T09:29:00;5.50;;;2.60;;
33876;SDS011;20166;51.738;7.158;2023-12-20T09:31:47;5.27;;;2.97;;
33876;SDS011;20166;51.738;7.158;2023-12-20T09:34:33;11.97;;;3.50;;
33876;SDS011;20166;51.738;7.158;2023-12-20T09:37:21;11.30;;;3.90;;
33876;SDS011;20166;51.738;7.158;2023-12-20T09:40:08;15.33;;;3.27;;
33876;SDS011;20166;51.738;7.158;2023-12-20T09:42:59;6.87;;;3.30;;
33876;SDS011;20166;51.738;7.158;2023-12-20T09:45:50;9.07;;;3.00;;
33876;SDS011;20166;51.738;7.158;2023-12-20T09:48:39;6.23;;;2.73;;
33876;SDS011;20166;51.738;7.158;2023-12-20T09:51:27;7.23;;;3.03;;
33876;SDS011;20166;51.738;7.158;2023-12-20T09:54:16;10.20;;;3.07;;
33876;SDS011;20166;51.738;7.158;2023-12-20T09:57:04;14.40;;;3.20;;
33876;SDS011;20166;51.738;7.158;2023-12-20T09:59:51;8.27;;;2.87;;
33876;SDS011;20166;51.738;7.158;2023-12-20T10:02:37;6.10;;;3.20;;
33876;SDS011;20166;51.738;7.158;2023-12-20T10:05:28;12.87;;;2.70;;
33876;SDS011;20166;51.738;7.158;2023-12-20T10:08:15;11.57;;;3.63;;
33876;SDS011;20166;51.738;7.158;2023-12-20T10:11:03;8.40;;;3.60;;
33876;SDS011;20166;51.738;7.158;2023-12-20T10:13:51;6.10;;;2.67;;
33876;SDS011;20166;51.738;7.158;2023-12-20T10:16:37;5.20;;;3.53;;
33876;SDS011;20166;51.738;7.158;2023-12-20T10:19:23;10.23;;;2.90;;
33876;SDS011;20166;51.738;7.158;2023-12-20T10:22:11;9.13;;;3.23;;
33876;SDS011;20166;51.738;7.158;2023-12-20T10:24:58;9.30;;;3.10;;
33876;SDS011;20166;51.738;7.158;2023-12-20T10:27:45;10.23;;;3.77;;
33876;SDS011;20166;51.738;7.158;2023-12-20T10:30:32;11.83;;;3.40;;
33876;SDS011;20166;51.738;7.158;2023-12-20T10:33:23;16.83;;;3.20;;
33876;SDS011;20166;51.738;7.158;2023-12-20T10:36:11;9.00;;;3.73;;
33876;SDS011;20166;51.738;7.158;2023-12-20T10:38:59;4.23;;;3.03;;
33876;SDS011;20166;51.738;7.158;2023-12-20T10:41:46;8.77;;;3.43;;
33876;SDS011;20166;51.738;7.158;2023-12-20T10:44:34;6.20;;;2.90;;
33876;SDS011;20166;51.738;7.158;2023-12-20T10:47:21;13.73;;;3.97;;
33876;SDS011;20166;51.738;7.158;2023-12-20T10:50:08;9.57;;;2.90;;
33876;SDS011;20166;51.738;7.158;2023-12-20T10:52:55;11.03;;;3.00;;
33876;SDS011;20166;51.738;7.158;2023-12-20T10:55:41;4.50;;;3.30;;
33876;SDS011;20166;51.738;7.158;2023-12-20T10:58:29;4.37;;;2.60;;
33876;SDS011;20166;51.738;7.158;2023-12-20T11:01:19;11.07;;;3.27;;
33876;SDS011;20166;51.738;7.158;2023-12-20T11:04:07;6.70;;;3.37;;
33876;SDS011;20166;51.738;7.158;2023-12-20T11:06:58;8.67;;;3.80;;
33876;SDS011;20166;51.738;7.158;2023-12-20T11:09:56;7.07;;;3.30;;
33876;SDS011;20166;51.738;7.158;2023-12-20T11:12:47;8.47;;;3.03;;
33876;SDS011;20166;51.738;7.158;2023-12-20T11:15:38;11.97;;;3.57;;
33876;SDS011;20166;51.738;7.158;2023-12-20T11:18:29;15.57;;;3.40;;
33876;SDS011;20166;51.738;7.158;2023-12-20T11:21:16;6.53;;;3.37;;
33876;SDS011;20166;51.738;7.158;2023-12-20T11:24:02;5.13;;;3.13;;
33876;SDS011;20166;51.738;7.158;2023-12-20T11:26:50;6.47;;;3.03;;
33876;SDS011;20166;51.738;7.158;2023-12-20T11:29:41;5.37;;;3.17;;
33876;SDS011;20166;51.738;7.158;2023-12-20T11:32:30;6.80;;;3.60;;
33876;SDS011;20166;51.738;7.158;2023-12-20T11:35:18;4.27;;;2.67;;
33876;SDS011;20166;51.738;7.158;2023-12-20T11:38:07;6.07;;;2.93;;
33876;SDS011;20166;51.738;7.158;2023-12-20T11:40:54;5.50;;;3.40;;
33876;SDS011;20166;51.738;7.158;2023-12-20T11:43:41;10.10;;;3.33;;
33876;SDS011;20166;51.738;7.158;2023-12-20T11:46:27;9.73;;;3.00;;
33876;SDS011;20166;51.738;7.158;2023-12-20T11:49:14;10.83;;;3.83;;
33876;SDS011;20166;51.738;7.158;2023-12-20T11:52:02;11.00;;;3.53;;
33876;SDS011;20166;51.738;7.158;2023-12-20T11:54:49;7.30;;;3.20;;
33876;SDS011;20166;51.738;7.158;2023-12-20T11:57:36;9.27;;;3.73;;
33876;SDS011;20166;51.738;7.158;2023-12-20T12:00:23;11.60;;;3.37;;
33876;SDS011;20166;51.738;7.158;2023-12-20T12:03:14;14.00;;;4.10;;
33876;SDS011;20166;51.738;7.158;2023-12-20T12:06:01;7.77;;;2.83;;
33876;SDS011;20166;51.738;7.158;2023-12-20T12:08:51;6.70;;;3.70;;
33876;SDS011;20166;51.738;7.158;2023-12-20T12:11:37;13.23;;;3.67;;
33876;SDS011;20166;51.738;7.158;2023-12-20T12:14:24;8.27;;;2.90;;
33876;SDS011;20166;51.738;7.158;2023-12-20T12:17:10;8.20;;;3.10;;
33876;SDS011;20166;51.738;7.158;2023-12-20T12:20:01;7.40;;;3.07;;
33876;SDS011;20166;51.738;7.158;2023-12-20T12:22:57;8.50;;;3.83;;
33876;SDS011;20166;51.738;7.158;2023-12-20T12:25:45;6.70;;;3.43;;
33876;SDS011;20166;51.738;7.158;2023-12-20T12:28:34;7.10;;;4.10;;
33876;SDS011;20166;51.738;7.158;2023-12-20T12:31:21;14.83;;;4.10;;
33876;SDS011;20166;51.738;7.158;2023-12-20T12:34:08;14.47;;;3.90;;
33876;SDS011;20166;51.738;7.158;2023-12-20T12:36:55;12.07;;;3.20;;
33876;SDS011;20166;51.738;7.158;2023-12-20T12:39:43;19.00;;;4.17;;
33876;SDS011;20166;51.738;7.158;2023-12-20T12:42:30;6.77;;;2.90;;
33876;SDS011;20166;51.738;7.158;2023-12-20T12:45:16;7.53;;;3.60;;
33876;SDS011;20166;51.738;7.158;2023-12-20T12:48:03;16.97;;;3.73;;
33876;SDS011;20166;51.738;7.158;2023-12-20T12:50:50;12.23;;;3.50;;
33876;SDS011;20166;51.738;7.158;2023-12-20T12:53:41;7.57;;;3.50;;
33876;SDS011;20166;51.738;7.158;2023-12-20T12:56:28;8.00;;;3.70;;
33876;SDS011;20166;51.738;7.158;2023-12-20T12:59:16;10.47;;;3.10;;
33876;SDS011;20166;51.738;7.158;2023-12-20T13:02:03;6.47;;;3.53;;
33876;SDS011;20166;51.738;7.158;2023-12-20T13:04:50;8.93;;;3.93;;
33876;SDS011;20166;51.738;7.158;2023-12-20T13:07:36;5.43;;;3.37;;
33876;SDS011;20166;51.738;7.158;2023-12-20T13:10:24;10.00;;;3.47;;
33876;SDS011;20166;51.738;7.158;2023-12-20T13:13:10;11.93;;;3.70;;
33876;SDS011;20166;51.738;7.158;2023-12-20T13:15:58;5.73;;;3.37;;
33876;SDS011;20166;51.738;7.158;2023-12-20T13:18:46;6.13;;;3.43;;
33876;SDS011;20166;51.738;7.158;2023-12-20T13:21:32;8.20;;;3.57;;
33876;SDS011;20166;51.738;7.158;2023-12-20T13:24:19;14.90;;;4.00;;
33876;SDS011;20166;51.738;7.158;2023-12-20T13:27:05;9.33;;;3.83;;
33876;SDS011;20166;51.738;7.158;2023-12-20T13:29:51;12.17;;;3.77;;
33876;SDS011;20166;51.738;7.158;2023-12-20T13:32:39;7.47;;;3.93;;
33876;SDS011;20166;51.738;7.158;2023-12-20T13:35:26;10.80;;;3.67;;
33876;SDS011;20166;51.738;7.158;2023-12-20T13:38:12;10.50;;;3.60;;
33876;SDS011;20166;51.738;7.158;2023-12-20T13:40:59;6.60;;;3.50;;
33876;SDS011;20166;51.738;7.158;2023-12-20T13:43:45;5.67;;;3.90;;
33876;SDS011;20166;51.738;7.158;2023-12-20T13:46:32;8.57;;;3.33;;
33876;SDS011;20166;51.738;7.158;2023-12-20T13:49:19;8.13;;;3.57;;
33876;SDS011;20166;51.738;7.158;2023-12-20T13:52:06;4.73;;;3.50;;
33876;SDS011;20166;51.738;7.158;2023-12-20T13:54:52;8.93;;;3.63;;
33876;SDS011;20166;51.738;7.158;2023-12-20T13:57:39;6.40;;;3.30;;
33876;SDS011;20166;51.738;7.158;2023-12-20T14:00:39;8.30;;;3.70;;
33876;SDS011;20166;51.738;7.158;2023-12-20T14:03:26;8.97;;;4.10;;
33876;SDS011;20166;51.738;7.158;2023-12-20T14:06:14;7.37;;;3.33;;
33876;SDS011;20166;51.738;7.158;2023-12-20T14:09:01;6.20;;;3.47;;
33876;SDS011;20166;51.738;7.158;2023-12-20T14:11:48;12.73;;;3.73;;
33876;SDS011;20166;51.738;7.158;2023-12-20T14:14:34;9.60;;;3.57;;
33876;SDS011;20166;51.738;7.158;2023-12-20T14:17:21;13.63;;;3.20;;
33876;SDS011;20166;51.738;7.158;2023-12-20T14:20:07;5.87;;;3.37;;
33876;SDS011;20166;51.738;7.158;2023-12-20T14:22:55;11.87;;;3.77;;
33876;SDS011;20166;51.738;7.158;2023-12-20T14:25:42;8.67;;;3.40;;
33876;SDS011;20166;51.738;7.158;2023-12-20T14:28:36;7.93;;;3.63;;
33876;SDS011;20166;51.738;7.158;2023-12-20T14:31:22;8.73;;;3.80;;
33876;SDS011;20166;51.738;7.158;2023-12-20T14:34:09;8.13;;;3.93;;
33876;SDS011;20166;51.738;7.158;2023-12-20T14:36:56;5.47;;;3.70;;
33876;SDS011;20166;51.738;7.158;2023-12-20T14:39:44;9.37;;;4.27;;
33876;SDS011;20166;51.738;7.158;2023-12-20T14:42:30;5.43;;;3.73;;
33876;SDS011;20166;51.738;7.158;2023-12-20T14:45:17;7.10;;;3.60;;
33876;SDS011;20166;51.738;7.158;2023-12-20T14:48:04;10.17;;;3.83;;
33876;SDS011;20166;51.738;7.158;2023-12-20T14:50:51;7.97;;;4.50;;
33876;SDS011;20166;51.738;7.158;2023-12-20T14:53:38;5.87;;;3.97;;
33876;SDS011;20166;51.738;7.158;2023-12-20T14:56:26;9.63;;;4.13;;
33876;SDS011;20166;51.738;7.158;2023-12-20T14:59:12;7.47;;;3.60;;
33876;SDS011;20166;51.738;7.158;2023-12-20T15:01:58;8.70;;;4.43;;
33876;SDS011;20166;51.738;7.158;2023-12-20T15:04:45;10.07;;;3.63;;
33876;SDS011;20166;51.738;7.158;2023-12-20T15:07:31;11.60;;;4.67;;
33876;SDS011;20166;51.738;7.158;2023-12-20T15:10:18;12.77;;;4.60;;
33876;SDS011;20166;51.738;7.158;2023-12-20T15:13:06;12.63;;;4.43;;
33876;SDS011;20166;51.738;7.158;2023-12-20T15:15:52;14.87;;;4.27;;
33876;SDS011;20166;51.738;7.158;2023-12-20T15:18:39;8.00;;;3.93;;
33876;SDS011;20166;51.738;7.158;2023-12-20T15:21:25;8.53;;;3.83;;
33876;SDS011;20166;51.738;7.158;2023-12-20T15:24:17;6.90;;;5.20;;
33876;SDS011;20166;51.738;7.158;2023-12-20T15:27:11;11.70;;;4.23;;
33876;SDS011;20166;51.738;7.158;2023-12-20T15:29:59;9.37;;;4.30;;
33876;SDS011;20166;51.738;7.158;2023-12-20T15:32:45;9.13;;;3.93;;
33876;SDS011;20166;51.738;7.158;2023-12-20T15:35:32;6.53;;;3.93;;
33876;SDS011;20166;51.738;7.158;2023-12-20T15:38:18;16.00;;;4.47;;
33876;SDS011;20166;51.738;7.158;2023-12-20T15:41:04;10.30;;;4.93;;
33876;SDS011;20166;51.738;7.158;2023-12-20T15:43:51;10.03;;;5.40;;
33876;SDS011;20166;51.738;7.158;2023-12-20T15:46:39;11.13;;;4.57;;
33876;SDS011;20166;51.738;7.158;2023-12-20T15:49:25;9.53;;;4.70;;
33876;SDS011;20166;51.738;7.158;2023-12-20T15:52:11;8.33;;;4.80;;
33876;SDS011;20166;51.738;7.158;2023-12-20T15:54:58;13.47;;;5.33;;
33876;SDS011;20166;51.738;7.158;2023-12-20T15:57:45;14.87;;;5.67;;
33876;SDS011;20166;51.738;7.158;2023-12-20T16:00:38;13.67;;;5.03;;
33876;SDS011;20166;51.738;7.158;2023-12-20T16:03:26;10.80;;;5.60;;
33876;SDS011;20166;51.738;7.158;2023-12-20T16:06:13;8.43;;;3.83;;
33876;SDS011;20166;51.738;7.158;2023-12-20T16:09:01;8.50;;;5.63;;
33876;SDS011;20166;51.738;7.158;2023-12-20T16:11:47;15.10;;;5.23;;
33876;SDS011;20166;51.738;7.158;2023-12-20T16:14:34;22.53;;;8.73;;
33876;SDS011;20166;51.738;7.158;2023-12-20T16:17:20;16.97;;;7.97;;
33876;SDS011;20166;51.738;7.158;2023-12-20T16:20:08;11.73;;;6.37;;
33876;SDS011;20166;51.738;7.158;2023-12-20T16:22:55;13.43;;;6.00;;
33876;SDS011;20166;51.738;7.158;2023-12-20T16:25:42;15.27;;;5.17;;
33876;SDS011;20166;51.738;7.158;2023-12-20T16:28:28;14.50;;;5.17;;
33876;SDS011;20166;51.738;7.158;2023-12-20T16:31:15;12.63;;;5.30;;
33876;SDS011;20166;51.738;7.158;2023-12-20T16:34:01;11.67;;;4.40;;
33876;SDS011;20166;51.738;7.158;2023-12-20T16:36:53;13.17;;;4.93;;
33876;SDS011;20166;51.738;7.158;2023-12-20T16:39:40;8.80;;;5.10;;
33876;SDS011;20166;51.738;7.158;2023-12-20T16:42:26;9.93;;;5.03;;